sensor_id;sensor_type;location;lat;lon;timestamp;P1;durP1;ratioP1;P2;durP2;ratioP2
39620;SDS011;25309;48.686;9.170;2022-09-09T00:01:14;3.33;;;0.87;;
39620;SDS011;25309;48.686;9.170;2022-09-09T00:03:52;2.70;;;0.90;;
39620;SDS011;25309;48.686;9.170;2022-09-09T00:06:24;4.47;;;1.00;;
39620;SDS011;25309;48.686;9.170;2022-09-09T00:08:59;1.43;;;0.93;;
39620;SDS011;25309;48.686;9.170;2022-09-09T00:11:33;2.43;;;1.10;;
39620;SDS011;25309;48.686;9.170;2022-09-09T00:14:08;1.70;;;1.00;;
39620;SDS011;25309;48.686;9.170;2022-09-09T00:16:43;3.30;;;1.00;;
39620;SDS011;25309;48.686;9.170;2022-09-09T00:19:18;3.53;;;1.50;;
39620;SDS011;25309;48.686;9.170;2022-09-09T00:21:50;3.67;;;1.07;;
39620;SDS011;25309;48.686;9.170;2022-09-09T00:24:26;3.67;;;1.10;;
39620;SDS011;25309;48.686;9.170;2022-09-09T00:27:00;2.13;;;0.97;;
39620;SDS011;25309;48.686;9.170;2022-09-09T00:29:33;2.27;;;1.03;;
39620;SDS011;25309;48.686;9.170;2022-09-09T00:32:11;3.60;;;1.53;;
39620;SDS011;25309;48.686;9.170;2022-09-09T00:34:40;4.27;;;1.03;;
39620;SDS011;25309;48.686;9.170;2022-09-09T00:37:13;1.07;;;0.93;;
39620;SDS011;25309;48.686;9.170;2022-09-09T00:39:41;4.37;;;0.97;;
39620;SDS011;25309;48.686;9.170;2022-09-09T00:42:13;1.80;;;1.00;;
39620;SDS011;25309;48.686;9.170;2022-09-09T00:44:47;2.63;;;1.10;;
39620;SDS011;25309;48.686;9.170;2022-09-09T00:47:31;5.57;;;1.07;;
39620;SDS011;25309;48.686;9.170;2022-09-09T00:50:13;2.97;;;1.00;;
39620;SDS011;25309;48.686;9.170;2022-09-09T00:52:55;2.43;;;0.90;;
39620;SDS011;25309;48.686;9.170;2022-09-09T00:55:33;4.43;;;1.10;;
39620;SDS011;25309;48.686;9.170;2022-09-09T00:58:08;3.60;;;1.30;;
39620;SDS011;25309;48.686;9.170;2022-09-09T01:00:38;3.23;;;1.00;;
39620;SDS011;25309;48.686;9.170;2022-09-09T01:06:00;2.70;;;0.93;;
39620;SDS011;25309;48.686;9.170;2022-09-09T01:11:43;3.43;;;1.00;;
39620;SDS011;25309;48.686;9.170;2022-09-09T01:14:29;2.63;;;1.13;;
39620;SDS011;25309;48.686;9.170;2022-09-09T01:17:10;4.50;;;1.20;;
39620;SDS011;25309;48.686;9.170;2022-09-09T01:19:49;2.10;;;1.00;;
39620;SDS011;25309;48.686;9.170;2022-09-09T01:22:40;2.37;;;1.00;;
39620;SDS011;25309;48.686;9.170;2022-09-09T01:25:19;3.63;;;1.47;;
39620;SDS011;25309;48.686;9.170;2022-09-09T01:28:03;3.03;;;1.00;;
39620;SDS011;25309;48.686;9.170;2022-09-09T01:30:34;1.43;;;0.90;;
39620;SDS011;25309;48.686;9.170;2022-09-09T01:33:07;2.27;;;0.90;;
39620;SDS011;25309;48.686;9.170;2022-09-09T01:35:40;3.73;;;1.23;;
39620;SDS011;25309;48.686;9.170;2022-09-09T01:38:12;2.87;;;1.10;;
39620;SDS011;25309;48.686;9.170;2022-09-09T01:40:41;1.23;;;0.97;;
39620;SDS011;25309;48.686;9.170;2022-09-09T01:43:09;3.63;;;1.00;;
39620;SDS011;25309;48.686;9.170;2022-09-09T01:45:37;2.37;;;1.00;;
39620;SDS011;25309;48.686;9.170;2022-09-09T01:48:05;2.87;;;1.10;;
39620;SDS011;25309;48.686;9.170;2022-09-09T01:50:44;3.03;;;1.00;;
39620;SDS011;25309;48.686;9.170;2022-09-09T01:53:12;2.90;;;0.90;;
39620;SDS011;25309;48.686;9.170;2022-09-09T01:55:44;2.47;;;0.97;;
39620;SDS011;25309;48.686;9.170;2022-09-09T01:58:26;1.90;;;1.03;;
39620;SDS011;25309;48.686;9.170;2022-09-09T02:01:02;2.37;;;1.00;;
39620;SDS011;25309;48.686;9.170;2022-09-09T02:03:34;3.73;;;1.40;;
39620;SDS011;25309;48.686;9.170;2022-09-09T02:06:12;2.87;;;1.17;;
39620;SDS011;25309;48.686;9.170;2022-09-09T02:08:51;2.20;;;0.80;;
39620;SDS011;25309;48.686;9.170;2022-09-09T02:11:24;1.80;;;1.07;;
39620;SDS011;25309;48.686;9.170;2022-09-09T02:14:01;2.13;;;1.00;;
39620;SDS011;25309;48.686;9.170;2022-09-09T02:16:32;2.97;;;1.03;;
39620;SDS011;25309;48.686;9.170;2022-09-09T02:19:06;1.90;;;1.07;;
39620;SDS011;25309;48.686;9.170;2022-09-09T02:21:53;3.80;;;1.87;;
39620;SDS011;25309;48.686;9.170;2022-09-09T02:24:23;3.77;;;0.90;;
39620;SDS011;25309;48.686;9.170;2022-09-09T02:27:05;3.20;;;1.10;;
39620;SDS011;25309;48.686;9.170;2022-09-09T02:29:38;3.37;;;1.03;;
39620;SDS011;25309;48.686;9.170;2022-09-09T02:32:11;1.47;;;0.90;;
39620;SDS011;25309;48.686;9.170;2022-09-09T02:34:43;2.33;;;1.00;;
39620;SDS011;25309;48.686;9.170;2022-09-09T02:37:15;2.63;;;1.10;;
39620;SDS011;25309;48.686;9.170;2022-09-09T02:39:48;2.20;;;1.20;;
39620;SDS011;25309;48.686;9.170;2022-09-09T02:42:18;4.03;;;1.10;;
39620;SDS011;25309;48.686;9.170;2022-09-09T02:44:47;3.57;;;1.17;;
39620;SDS011;25309;48.686;9.170;2022-09-09T02:47:16;4.57;;;1.17;;
39620;SDS011;25309;48.686;9.170;2022-09-09T02:49:54;2.70;;;0.80;;
39620;SDS011;25309;48.686;9.170;2022-09-09T02:52:32;1.93;;;1.10;;
39620;SDS011;25309;48.686;9.170;2022-09-09T02:55:04;2.13;;;0.93;;
39620;SDS011;25309;48.686;9.170;2022-09-09T02:57:38;3.07;;;0.90;;
39620;SDS011;25309;48.686;9.170;2022-09-09T03:00:09;1.70;;;1.03;;
39620;SDS011;25309;48.686;9.170;2022-09-09T03:02:38;2.47;;;1.10;;
39620;SDS011;25309;48.686;9.170;2022-09-09T03:05:06;2.93;;;0.90;;
39620;SDS011;25309;48.686;9.170;2022-09-09T03:07:33;2.97;;;0.80;;
39620;SDS011;25309;48.686;9.170;2022-09-09T03:10:01;2.43;;;0.70;;
39620;SDS011;25309;48.686;9.170;2022-09-09T03:12:28;2.73;;;0.93;;
39620;SDS011;25309;48.686;9.170;2022-09-09T03:14:55;1.60;;;0.80;;
39620;SDS011;25309;48.686;9.170;2022-09-09T03:17:24;2.30;;;0.97;;
39620;SDS011;25309;48.686;9.170;2022-09-09T03:19:54;1.93;;;0.90;;
39620;SDS011;25309;48.686;9.170;2022-09-09T03:22:22;1.73;;;0.90;;
39620;SDS011;25309;48.686;9.170;2022-09-09T03:24:49;1.53;;;0.80;;
39620;SDS011;25309;48.686;9.170;2022-09-09T03:27:17;1.17;;;0.80;;
39620;SDS011;25309;48.686;9.170;2022-09-09T03:29:45;3.77;;;0.90;;
39620;SDS011;25309;48.686;9.170;2022-09-09T03:32:18;1.27;;;0.90;;
39620;SDS011;25309;48.686;9.170;2022-09-09T03:34:49;3.40;;;0.90;;
39620;SDS011;25309;48.686;9.170;2022-09-09T03:37:17;1.40;;;0.83;;
39620;SDS011;25309;48.686;9.170;2022-09-09T03:39:44;1.70;;;1.00;;
39620;SDS011;25309;48.686;9.170;2022-09-09T03:42:12;3.80;;;1.13;;
39620;SDS011;25309;48.686;9.170;2022-09-09T03:44:51;3.27;;;1.00;;
39620;SDS011;25309;48.686;9.170;2022-09-09T03:47:21;2.20;;;1.07;;
39620;SDS011;25309;48.686;9.170;2022-09-09T03:49:54;3.67;;;1.00;;
39620;SDS011;25309;48.686;9.170;2022-09-09T03:52:21;1.33;;;1.00;;
39620;SDS011;25309;48.686;9.170;2022-09-09T03:54:51;2.93;;;1.00;;
39620;SDS011;25309;48.686;9.170;2022-09-09T03:57:19;4.20;;;1.20;;
39620;SDS011;25309;48.686;9.170;2022-09-09T03:59:46;2.60;;;1.10;;
39620;SDS011;25309;48.686;9.170;2022-09-09T04:02:14;3.60;;;1.23;;
39620;SDS011;25309;48.686;9.170;2022-09-09T04:04:41;3.17;;;1.20;;
39620;SDS011;25309;48.686;9.170;2022-09-09T04:07:10;3.60;;;1.10;;
39620;SDS011;25309;48.686;9.170;2022-09-09T04:09:38;2.80;;;1.10;;
39620;SDS011;25309;48.686;9.170;2022-09-09T04:12:05;3.30;;;1.20;;
39620;SDS011;25309;48.686;9.170;2022-09-09T04:14:33;2.50;;;1.17;;
39620;SDS011;25309;48.686;9.170;2022-09-09T04:17:03;2.73;;;1.10;;
39620;SDS011;25309;48.686;9.170;2022-09-09T04:19:32;2.37;;;1.03;;
39620;SDS011;25309;48.686;9.170;2022-09-09T04:22:00;3.37;;;1.00;;
39620;SDS011;25309;48.686;9.170;2022-09-09T04:24:28;2.73;;;1.30;;
39620;SDS011;25309;48.686;9.170;2022-09-09T04:26:56;2.97;;;1.10;;
39620;SDS011;25309;48.686;9.170;2022-09-09T04:29:23;1.33;;;0.90;;
39620;SDS011;25309;48.686;9.170;2022-09-09T04:31:50;2.17;;;1.10;;
39620;SDS011;25309;48.686;9.170;2022-09-09T04:34:17;3.57;;;1.20;;
39620;SDS011;25309;48.686;9.170;2022-09-09T04:36:44;3.77;;;1.10;;
39620;SDS011;25309;48.686;9.170;2022-09-09T04:39:12;2.80;;;1.23;;
39620;SDS011;25309;48.686;9.170;2022-09-09T04:41:40;3.10;;;1.40;;
39620;SDS011;25309;48.686;9.170;2022-09-09T04:44:09;3.27;;;1.30;;
39620;SDS011;25309;48.686;9.170;2022-09-09T04:46:36;4.40;;;1.30;;
39620;SDS011;25309;48.686;9.170;2022-09-09T04:49:03;4.20;;;1.67;;
39620;SDS011;25309;48.686;9.170;2022-09-09T04:51:31;5.20;;;1.80;;
39620;SDS011;25309;48.686;9.170;2022-09-09T04:53:58;3.60;;;2.00;;
39620;SDS011;25309;48.686;9.170;2022-09-09T04:56:25;4.37;;;1.80;;
39620;SDS011;25309;48.686;9.170;2022-09-09T04:58:58;4.13;;;1.77;;
39620;SDS011;25309;48.686;9.170;2022-09-09T05:01:35;5.00;;;2.27;;
39620;SDS011;25309;48.686;9.170;2022-09-09T05:04:04;6.00;;;2.20;;
39620;SDS011;25309;48.686;9.170;2022-09-09T05:06:32;4.93;;;2.30;;
39620;SDS011;25309;48.686;9.170;2022-09-09T05:09:00;9.87;;;3.30;;
39620;SDS011;25309;48.686;9.170;2022-09-09T05:11:29;5.03;;;2.30;;
39620;SDS011;25309;48.686;9.170;2022-09-09T05:14:04;3.57;;;1.73;;
39620;SDS011;25309;48.686;9.170;2022-09-09T05:16:31;3.87;;;1.40;;
39620;SDS011;25309;48.686;9.170;2022-09-09T05:18:58;3.77;;;1.43;;
39620;SDS011;25309;48.686;9.170;2022-09-09T05:21:34;3.20;;;1.70;;
39620;SDS011;25309;48.686;9.170;2022-09-09T05:24:01;2.10;;;1.20;;
39620;SDS011;25309;48.686;9.170;2022-09-09T05:26:29;3.23;;;1.20;;
39620;SDS011;25309;48.686;9.170;2022-09-09T05:28:57;4.80;;;1.50;;
39620;SDS011;25309;48.686;9.170;2022-09-09T05:31:29;5.10;;;1.57;;
39620;SDS011;25309;48.686;9.170;2022-09-09T05:33:58;3.53;;;1.60;;
39620;SDS011;25309;48.686;9.170;2022-09-09T05:36:25;2.40;;;1.17;;
39620;SDS011;25309;48.686;9.170;2022-09-09T05:38:54;2.63;;;1.30;;
39620;SDS011;25309;48.686;9.170;2022-09-09T05:41:24;4.30;;;1.47;;
39620;SDS011;25309;48.686;9.170;2022-09-09T05:43:54;3.83;;;1.20;;
39620;SDS011;25309;48.686;9.170;2022-09-09T05:46:22;4.20;;;1.77;;
39620;SDS011;25309;48.686;9.170;2022-09-09T05:48:53;4.20;;;1.37;;
39620;SDS011;25309;48.686;9.170;2022-09-09T05:51:31;3.47;;;1.47;;
39620;SDS011;25309;48.686;9.170;2022-09-09T05:54:03;2.70;;;1.20;;
39620;SDS011;25309;48.686;9.170;2022-09-09T05:56:33;2.87;;;1.30;;
39620;SDS011;25309;48.686;9.170;2022-09-09T05:59:00;3.43;;;1.30;;
39620;SDS011;25309;48.686;9.170;2022-09-09T06:01:28;2.43;;;1.23;;
39620;SDS011;25309;48.686;9.170;2022-09-09T06:03:58;3.60;;;1.30;;
39620;SDS011;25309;48.686;9.170;2022-09-09T06:06:27;3.57;;;1.20;;
39620;SDS011;25309;48.686;9.170;2022-09-09T06:08:58;4.33;;;1.20;;
39620;SDS011;25309;48.686;9.170;2022-09-09T06:11:32;3.27;;;1.27;;
39620;SDS011;25309;48.686;9.170;2022-09-09T06:14:00;3.23;;;1.30;;
39620;SDS011;25309;48.686;9.170;2022-09-09T06:16:29;3.07;;;1.20;;
39620;SDS011;25309;48.686;9.170;2022-09-09T06:19:00;5.13;;;1.50;;
39620;SDS011;25309;48.686;9.170;2022-09-09T06:21:30;3.10;;;1.10;;
39620;SDS011;25309;48.686;9.170;2022-09-09T06:24:00;2.57;;;1.20;;
39620;SDS011;25309;48.686;9.170;2022-09-09T06:26:27;2.37;;;1.10;;
39620;SDS011;25309;48.686;9.170;2022-09-09T06:28:57;3.50;;;1.30;;
39620;SDS011;25309;48.686;9.170;2022-09-09T06:31:25;3.03;;;1.30;;
39620;SDS011;25309;48.686;9.170;2022-09-09T06:34:01;4.07;;;1.30;;
39620;SDS011;25309;48.686;9.170;2022-09-09T06:36:31;2.83;;;1.20;;
39620;SDS011;25309;48.686;9.170;2022-09-09T06:38:59;2.83;;;1.20;;
39620;SDS011;25309;48.686;9.170;2022-09-09T06:41:28;2.70;;;1.20;;
39620;SDS011;25309;48.686;9.170;2022-09-09T06:43:56;3.43;;;1.23;;
39620;SDS011;25309;48.686;9.170;2022-09-09T06:46:32;2.07;;;1.00;;
39620;SDS011;25309;48.686;9.170;2022-09-09T06:49:01;3.77;;;1.20;;
39620;SDS011;25309;48.686;9.170;2022-09-09T06:51:29;2.70;;;1.07;;
39620;SDS011;25309;48.686;9.170;2022-09-09T06:53:58;3.30;;;1.30;;
39620;SDS011;25309;48.686;9.170;2022-09-09T06:56:27;3.17;;;1.00;;
39620;SDS011;25309;48.686;9.170;2022-09-09T06:58:57;2.73;;;1.40;;
39620;SDS011;25309;48.686;9.170;2022-09-09T07:01:28;2.57;;;1.23;;
39620;SDS011;25309;48.686;9.170;2022-09-09T07:04:03;2.47;;;1.23;;
39620;SDS011;25309;48.686;9.170;2022-09-09T07:06:35;2.60;;;1.13;;
39620;SDS011;25309;48.686;9.170;2022-09-09T07:09:05;3.47;;;1.20;;
39620;SDS011;25309;48.686;9.170;2022-09-09T07:11:36;4.47;;;1.30;;
39620;SDS011;25309;48.686;9.170;2022-09-09T07:14:04;2.07;;;1.40;;
39620;SDS011;25309;48.686;9.170;2022-09-09T07:16:32;4.67;;;1.40;;
39620;SDS011;25309;48.686;9.170;2022-09-09T07:19:02;3.63;;;1.20;;
39620;SDS011;25309;48.686;9.170;2022-09-09T07:21:30;1.80;;;1.30;;
39620;SDS011;25309;48.686;9.170;2022-09-09T07:23:58;4.47;;;1.73;;
39620;SDS011;25309;48.686;9.170;2022-09-09T07:26:27;4.13;;;1.30;;
39620;SDS011;25309;48.686;9.170;2022-09-09T07:28:56;2.43;;;1.20;;
39620;SDS011;25309;48.686;9.170;2022-09-09T07:31:24;2.90;;;1.40;;
39620;SDS011;25309;48.686;9.170;2022-09-09T07:33:53;2.60;;;1.20;;
39620;SDS011;25309;48.686;9.170;2022-09-09T07:36:22;3.37;;;1.40;;
39620;SDS011;25309;48.686;9.170;2022-09-09T07:38:55;3.60;;;1.37;;
39620;SDS011;25309;48.686;9.170;2022-09-09T07:41:25;1.80;;;1.20;;
39620;SDS011;25309;48.686;9.170;2022-09-09T07:43:53;3.10;;;1.20;;
39620;SDS011;25309;48.686;9.170;2022-09-09T07:46:22;3.23;;;1.30;;
39620;SDS011;25309;48.686;9.170;2022-09-09T07:48:51;1.83;;;1.10;;
39620;SDS011;25309;48.686;9.170;2022-09-09T07:51:27;2.77;;;1.20;;
39620;SDS011;25309;48.686;9.170;2022-09-09T07:53:56;2.07;;;1.10;;
39620;SDS011;25309;48.686;9.170;2022-09-09T07:56:25;3.00;;;1.10;;
39620;SDS011;25309;48.686;9.170;2022-09-09T07:58:54;3.37;;;1.23;;
39620;SDS011;25309;48.686;9.170;2022-09-09T08:01:23;3.93;;;1.60;;
39620;SDS011;25309;48.686;9.170;2022-09-09T08:03:53;2.93;;;1.17;;
39620;SDS011;25309;48.686;9.170;2022-09-09T08:06:22;2.13;;;1.30;;
39620;SDS011;25309;48.686;9.170;2022-09-09T08:08:51;2.83;;;1.50;;
39620;SDS011;25309;48.686;9.170;2022-09-09T08:11:19;4.97;;;1.10;;
39620;SDS011;25309;48.686;9.170;2022-09-09T08:13:47;3.60;;;1.00;;
39620;SDS011;25309;48.686;9.170;2022-09-09T08:16:20;3.13;;;1.20;;
39620;SDS011;25309;48.686;9.170;2022-09-09T08:18:49;3.77;;;1.20;;
39620;SDS011;25309;48.686;9.170;2022-09-09T08:21:18;3.00;;;1.13;;
39620;SDS011;25309;48.686;9.170;2022-09-09T08:23:47;5.13;;;1.23;;
39620;SDS011;25309;48.686;9.170;2022-09-09T08:26:25;1.87;;;1.20;;
39620;SDS011;25309;48.686;9.170;2022-09-09T08:28:55;2.83;;;1.23;;
39620;SDS011;25309;48.686;9.170;2022-09-09T08:31:25;3.97;;;1.27;;
39620;SDS011;25309;48.686;9.170;2022-09-09T08:33:54;2.80;;;1.20;;
39620;SDS011;25309;48.686;9.170;2022-09-09T08:36:22;3.43;;;1.03;;
39620;SDS011;25309;48.686;9.170;2022-09-09T08:38:52;2.23;;;0.90;;
39620;SDS011;25309;48.686;9.170;2022-09-09T08:41:35;3.23;;;1.20;;
39620;SDS011;25309;48.686;9.170;2022-09-09T08:44:12;2.20;;;1.00;;
39620;SDS011;25309;48.686;9.170;2022-09-09T08:46:49;1.63;;;0.90;;
39620;SDS011;25309;48.686;9.170;2022-09-09T08:49:35;3.20;;;1.30;;
39620;SDS011;25309;48.686;9.170;2022-09-09T08:52:13;2.40;;;1.00;;
39620;SDS011;25309;48.686;9.170;2022-09-09T08:54:44;4.07;;;1.13;;
39620;SDS011;25309;48.686;9.170;2022-09-09T08:57:21;3.67;;;1.55;;
39620;SDS011;25309;48.686;9.170;2022-09-09T08:59:54;4.88;;;1.40;;
39620;SDS011;25309;48.686;9.170;2022-09-09T09:02:24;3.63;;;1.08;;
39620;SDS011;25309;48.686;9.170;2022-09-09T09:05:01;1.98;;;1.10;;
39620;SDS011;25309;48.686;9.170;2022-09-09T09:07:44;3.30;;;1.30;;
39620;SDS011;25309;48.686;9.170;2022-09-09T09:10:29;2.85;;;1.10;;
39620;SDS011;25309;48.686;9.170;2022-09-09T09:13:13;3.10;;;1.00;;
39620;SDS011;25309;48.686;9.170;2022-09-09T09:15:44;2.25;;;1.15;;
39620;SDS011;25309;48.686;9.170;2022-09-09T09:18:15;2.55;;;1.08;;
39620;SDS011;25309;48.686;9.170;2022-09-09T09:20:46;2.05;;;0.90;;
39620;SDS011;25309;48.686;9.170;2022-09-09T09:23:23;3.05;;;1.13;;
39620;SDS011;25309;48.686;9.170;2022-09-09T09:25:56;3.80;;;0.90;;
39620;SDS011;25309;48.686;9.170;2022-09-09T09:28:28;1.60;;;0.50;;
39620;SDS011;25309;48.686;9.170;2022-09-09T09:31:03;1.63;;;0.60;;
39620;SDS011;25309;48.686;9.170;2022-09-09T09:33:35;1.90;;;0.60;;
39620;SDS011;25309;48.686;9.170;2022-09-09T09:36:09;2.70;;;0.70;;
39620;SDS011;25309;48.686;9.170;2022-09-09T09:38:39;1.27;;;0.60;;
39620;SDS011;25309;48.686;9.170;2022-09-09T09:41:29;4.53;;;1.60;;
39620;SDS011;25309;48.686;9.170;2022-09-09T09:43:58;5.43;;;2.70;;
39620;SDS011;25309;48.686;9.170;2022-09-09T09:46:27;1.98;;;1.00;;
39620;SDS011;25309;48.686;9.170;2022-09-09T09:49:08;2.08;;;0.98;;
39620;SDS011;25309;48.686;9.170;2022-09-09T09:51:37;2.38;;;1.30;;
39620;SDS011;25309;48.686;9.170;2022-09-09T09:54:08;4.63;;;1.95;;
39620;SDS011;25309;48.686;9.170;2022-09-09T09:56:46;6.90;;;2.95;;
39620;SDS011;25309;48.686;9.170;2022-09-09T09:59:22;4.10;;;1.83;;
39620;SDS011;25309;48.686;9.170;2022-09-09T10:02:17;3.72;;;1.10;;
39620;SDS011;25309;48.686;9.170;2022-09-09T10:05:00;2.28;;;0.77;;
39620;SDS011;25309;48.686;9.170;2022-09-09T10:07:29;3.92;;;1.20;;
39620;SDS011;25309;48.686;9.170;2022-09-09T10:09:56;1.98;;;0.98;;
39620;SDS011;25309;48.686;9.170;2022-09-09T10:12:30;2.35;;;1.00;;
39620;SDS011;25309;48.686;9.170;2022-09-09T10:15:18;4.13;;;1.33;;
39620;SDS011;25309;48.686;9.170;2022-09-09T10:17:57;3.10;;;1.13;;
39620;SDS011;25309;48.686;9.170;2022-09-09T10:20:35;2.90;;;1.20;;
39620;SDS011;25309;48.686;9.170;2022-09-09T10:23:13;3.30;;;0.83;;
39620;SDS011;25309;48.686;9.170;2022-09-09T10:26:07;2.55;;;0.85;;
39620;SDS011;25309;48.686;9.170;2022-09-09T10:28:56;2.25;;;1.00;;
39620;SDS011;25309;48.686;9.170;2022-09-09T10:31:40;2.00;;;1.00;;
39620;SDS011;25309;48.686;9.170;2022-09-09T10:34:19;2.83;;;1.00;;
39620;SDS011;25309;48.686;9.170;2022-09-09T10:36:58;1.63;;;0.80;;
39620;SDS011;25309;48.686;9.170;2022-09-09T10:39:31;3.38;;;1.05;;
39620;SDS011;25309;48.686;9.170;2022-09-09T10:42:08;1.67;;;1.00;;
39620;SDS011;25309;48.686;9.170;2022-09-09T10:44:41;2.13;;;0.70;;
39620;SDS011;25309;48.686;9.170;2022-09-09T10:47:34;3.40;;;0.97;;
39620;SDS011;25309;48.686;9.170;2022-09-09T10:50:25;3.30;;;1.03;;
39620;SDS011;25309;48.686;9.170;2022-09-09T10:53:36;1.57;;;0.70;;
39620;SDS011;25309;48.686;9.170;2022-09-09T10:56:09;1.23;;;0.73;;
39620;SDS011;25309;48.686;9.170;2022-09-09T10:58:40;2.13;;;0.80;;
39620;SDS011;25309;48.686;9.170;2022-09-09T11:01:15;3.27;;;1.00;;
39620;SDS011;25309;48.686;9.170;2022-09-09T11:03:47;4.17;;;1.00;;
39620;SDS011;25309;48.686;9.170;2022-09-09T11:06:19;3.30;;;1.00;;
39620;SDS011;25309;48.686;9.170;2022-09-09T11:08:50;2.73;;;1.13;;
39620;SDS011;25309;48.686;9.170;2022-09-09T11:11:25;2.07;;;0.90;;
39620;SDS011;25309;48.686;9.170;2022-09-09T11:13:57;2.53;;;0.93;;
39620;SDS011;25309;48.686;9.170;2022-09-09T11:16:28;2.70;;;1.13;;
39620;SDS011;25309;48.686;9.170;2022-09-09T11:19:03;2.87;;;1.03;;
39620;SDS011;25309;48.686;9.170;2022-09-09T11:21:40;2.50;;;1.10;;
39620;SDS011;25309;48.686;9.170;2022-09-09T11:24:11;3.30;;;1.20;;
39620;SDS011;25309;48.686;9.170;2022-09-09T11:26:44;2.97;;;1.10;;
39620;SDS011;25309;48.686;9.170;2022-09-09T11:32:23;1.77;;;0.80;;
39620;SDS011;25309;48.686;9.170;2022-09-09T11:35:17;2.30;;;0.90;;
39620;SDS011;25309;48.686;9.170;2022-09-09T11:37:56;3.07;;;1.00;;
39620;SDS011;25309;48.686;9.170;2022-09-09T11:40:40;1.47;;;0.77;;
39620;SDS011;25309;48.686;9.170;2022-09-09T11:43:09;1.20;;;0.70;;
39620;SDS011;25309;48.686;9.170;2022-09-09T11:45:39;2.40;;;0.97;;
39620;SDS011;25309;48.686;9.170;2022-09-09T11:48:20;1.90;;;0.60;;
39620;SDS011;25309;48.686;9.170;2022-09-09T11:50:59;2.40;;;0.57;;
39620;SDS011;25309;48.686;9.170;2022-09-09T11:53:31;1.57;;;0.50;;
39620;SDS011;25309;48.686;9.170;2022-09-09T11:56:05;1.23;;;0.50;;
39620;SDS011;25309;48.686;9.170;2022-09-09T11:58:38;0.77;;;0.50;;
39620;SDS011;25309;48.686;9.170;2022-09-09T12:01:13;0.87;;;0.30;;
39620;SDS011;25309;48.686;9.170;2022-09-09T12:03:41;0.60;;;0.20;;
39620;SDS011;25309;48.686;9.170;2022-09-09T12:06:14;1.20;;;0.30;;
39620;SDS011;25309;48.686;9.170;2022-09-09T12:08:46;1.20;;;0.50;;
39620;SDS011;25309;48.686;9.170;2022-09-09T12:11:23;0.97;;;0.30;;
39620;SDS011;25309;48.686;9.170;2022-09-09T12:13:55;0.27;;;0.23;;
39620;SDS011;25309;48.686;9.170;2022-09-09T12:16:29;1.03;;;0.40;;
39620;SDS011;25309;48.686;9.170;2022-09-09T12:19:03;1.40;;;0.40;;
39620;SDS011;25309;48.686;9.170;2022-09-09T12:21:34;0.70;;;0.20;;
39620;SDS011;25309;48.686;9.170;2022-09-09T12:24:07;1.03;;;0.30;;
39620;SDS011;25309;48.686;9.170;2022-09-09T12:26:37;0.83;;;0.30;;
39620;SDS011;25309;48.686;9.170;2022-09-09T12:29:12;0.70;;;0.30;;
39620;SDS011;25309;48.686;9.170;2022-09-09T12:31:48;0.40;;;0.40;;
39620;SDS011;25309;48.686;9.170;2022-09-09T12:34:27;0.97;;;0.43;;
39620;SDS011;25309;48.686;9.170;2022-09-09T12:37:04;1.73;;;0.60;;
39620;SDS011;25309;48.686;9.170;2022-09-09T12:39:40;2.57;;;0.80;;
39620;SDS011;25309;48.686;9.170;2022-09-09T12:42:18;1.93;;;0.70;;
39620;SDS011;25309;48.686;9.170;2022-09-09T12:44:53;3.13;;;0.70;;
39620;SDS011;25309;48.686;9.170;2022-09-09T12:47:22;1.47;;;0.70;;
39620;SDS011;25309;48.686;9.170;2022-09-09T12:49:58;1.67;;;0.60;;
39620;SDS011;25309;48.686;9.170;2022-09-09T12:52:28;1.77;;;0.60;;
39620;SDS011;25309;48.686;9.170;2022-09-09T12:54:58;2.73;;;0.70;;
39620;SDS011;25309;48.686;9.170;2022-09-09T12:57:29;1.83;;;0.70;;
39620;SDS011;25309;48.686;9.170;2022-09-09T13:00:04;3.10;;;0.70;;
39620;SDS011;25309;48.686;9.170;2022-09-09T13:02:34;0.97;;;0.50;;
39620;SDS011;25309;48.686;9.170;2022-09-09T13:05:13;1.43;;;0.70;;
39620;SDS011;25309;48.686;9.170;2022-09-09T13:07:44;3.07;;;0.80;;
39620;SDS011;25309;48.686;9.170;2022-09-09T13:10:11;1.57;;;0.63;;
39620;SDS011;25309;48.686;9.170;2022-09-09T13:12:50;1.00;;;0.60;;
39620;SDS011;25309;48.686;9.170;2022-09-09T13:15:19;1.87;;;0.57;;
39620;SDS011;25309;48.686;9.170;2022-09-09T13:17:49;2.83;;;0.70;;
39620;SDS011;25309;48.686;9.170;2022-09-09T13:20:22;2.47;;;0.80;;
39620;SDS011;25309;48.686;9.170;2022-09-09T13:22:51;2.20;;;0.60;;
39620;SDS011;25309;48.686;9.170;2022-09-09T13:25:21;1.27;;;0.67;;
39620;SDS011;25309;48.686;9.170;2022-09-09T13:27:53;1.03;;;0.50;;
39620;SDS011;25309;48.686;9.170;2022-09-09T13:30:25;2.40;;;0.80;;
39620;SDS011;25309;48.686;9.170;2022-09-09T13:33:01;2.77;;;0.57;;
39620;SDS011;25309;48.686;9.170;2022-09-09T13:35:33;1.57;;;0.50;;
39620;SDS011;25309;48.686;9.170;2022-09-09T13:38:07;2.20;;;0.53;;
39620;SDS011;25309;48.686;9.170;2022-09-09T13:40:38;1.27;;;0.60;;
39620;SDS011;25309;48.686;9.170;2022-09-09T13:43:05;1.37;;;0.60;;
39620;SDS011;25309;48.686;9.170;2022-09-09T13:45:51;2.40;;;0.60;;
39620;SDS011;25309;48.686;9.170;2022-09-09T13:48:20;1.77;;;0.60;;
39620;SDS011;25309;48.686;9.170;2022-09-09T13:50:53;2.50;;;0.50;;
39620;SDS011;25309;48.686;9.170;2022-09-09T13:53:23;1.57;;;0.70;;
39620;SDS011;25309;48.686;9.170;2022-09-09T13:55:50;2.53;;;0.60;;
39620;SDS011;25309;48.686;9.170;2022-09-09T13:58:18;2.73;;;0.70;;
39620;SDS011;25309;48.686;9.170;2022-09-09T14:00:45;2.73;;;0.80;;
39620;SDS011;25309;48.686;9.170;2022-09-09T14:03:13;3.33;;;0.77;;
39620;SDS011;25309;48.686;9.170;2022-09-09T14:05:40;1.60;;;0.50;;
39620;SDS011;25309;48.686;9.170;2022-09-09T14:08:10;2.90;;;0.90;;
39620;SDS011;25309;48.686;9.170;2022-09-09T14:10:47;1.67;;;0.60;;
39620;SDS011;25309;48.686;9.170;2022-09-09T14:13:14;2.60;;;0.83;;
39620;SDS011;25309;48.686;9.170;2022-09-09T14:15:41;1.70;;;0.57;;
39620;SDS011;25309;48.686;9.170;2022-09-09T14:18:09;1.20;;;0.60;;
39620;SDS011;25309;48.686;9.170;2022-09-09T14:20:38;2.07;;;0.60;;
39620;SDS011;25309;48.686;9.170;2022-09-09T14:23:05;1.17;;;0.50;;
39620;SDS011;25309;48.686;9.170;2022-09-09T14:25:32;2.10;;;0.60;;
39620;SDS011;25309;48.686;9.170;2022-09-09T14:28:01;1.63;;;0.40;;
39620;SDS011;25309;48.686;9.170;2022-09-09T14:30:28;1.20;;;0.40;;
39620;SDS011;25309;48.686;9.170;2022-09-09T14:32:55;2.83;;;0.60;;
39620;SDS011;25309;48.686;9.170;2022-09-09T14:35:22;1.63;;;0.60;;
39620;SDS011;25309;48.686;9.170;2022-09-09T14:37:48;1.57;;;0.50;;
39620;SDS011;25309;48.686;9.170;2022-09-09T14:40:15;2.70;;;0.50;;
39620;SDS011;25309;48.686;9.170;2022-09-09T14:42:42;2.10;;;0.50;;
39620;SDS011;25309;48.686;9.170;2022-09-09T14:45:11;1.30;;;0.53;;
39620;SDS011;25309;48.686;9.170;2022-09-09T14:47:38;1.87;;;0.57;;
39620;SDS011;25309;48.686;9.170;2022-09-09T14:50:05;1.70;;;0.50;;
39620;SDS011;25309;48.686;9.170;2022-09-09T14:52:34;2.70;;;0.57;;
39620;SDS011;25309;48.686;9.170;2022-09-09T14:55:01;1.97;;;0.73;;
39620;SDS011;25309;48.686;9.170;2022-09-09T14:57:28;2.00;;;0.63;;
39620;SDS011;25309;48.686;9.170;2022-09-09T14:59:54;2.50;;;0.53;;
39620;SDS011;25309;48.686;9.170;2022-09-09T15:02:24;1.13;;;0.57;;
39620;SDS011;25309;48.686;9.170;2022-09-09T15:04:51;1.57;;;0.40;;
39620;SDS011;25309;48.686;9.170;2022-09-09T15:07:18;1.90;;;0.73;;
39620;SDS011;25309;48.686;9.170;2022-09-09T15:09:45;1.70;;;0.37;;
39620;SDS011;25309;48.686;9.170;2022-09-09T15:12:14;1.23;;;0.50;;
39620;SDS011;25309;48.686;9.170;2022-09-09T15:14:41;1.40;;;0.57;;
39620;SDS011;25309;48.686;9.170;2022-09-09T15:17:08;2.37;;;0.77;;
39620;SDS011;25309;48.686;9.170;2022-09-09T15:19:37;2.33;;;0.70;;
39620;SDS011;25309;48.686;9.170;2022-09-09T15:36:16;3.00;;;0.70;;
39620;SDS011;25309;48.686;9.170;2022-09-09T15:38:44;2.67;;;0.73;;
39620;SDS011;25309;48.686;9.170;2022-09-09T15:41:11;0.93;;;0.50;;